Terminal Aerodrome Forecast
Issued by NWS Oklahoma City, OK

Home | Current Version | Previous Version | Text Only | Print | Product List | Glossary On
Versions: 1 2 3 4 5 6 7 8 9 10 11 12 13 14 15 16 17 18 19 20 21 22 23 24 25 26 27 28 29 30
000
FTUS44 KOUN 011730
TAFOUN
TAF
KOUN 011730Z 0118/0218 34025G32KT P6SM SCT025
     FM020000 34018G25KT P6SM SKC
     FM020900 35009KT P6SM SKC
     FM021600 18007KT P6SM SKC=

USA.gov is the U.S. government's official web portal to all federal, state and local government web resources and services.